createdAt,value
2019-05-19T00:02:06.330Z,12.26
2019-05-19T00:04:37.612Z,12.26
2019-05-19T00:07:08.328Z,12.17
2019-05-19T00:09:41.342Z,12.12
2019-05-19T00:12:11.642Z,12.09
2019-05-19T00:14:41.942Z,12.13
2019-05-19T00:17:12.184Z,12.09
2019-05-19T00:19:42.361Z,12.15
2019-05-19T00:22:12.692Z,12.06
2019-05-19T00:24:42.943Z,11.88
2019-05-19T00:27:13.202Z,11.73
2019-05-19T00:29:43.789Z,11.80
2019-05-19T00:32:14.182Z,11.84
2019-05-19T00:34:44.565Z,11.92
2019-05-19T00:37:14.877Z,11.96
2019-05-19T00:39:45.197Z,11.99
2019-05-19T00:42:15.751Z,11.98
2019-05-19T00:44:46.146Z,11.99
2019-05-19T00:47:16.502Z,12.04
2019-05-19T00:49:46.939Z,12.04
2019-05-19T00:52:17.953Z,12.00
2019-05-19T00:54:48.170Z,11.98
2019-05-19T00:57:18.735Z,11.94
2019-05-19T00:59:49.481Z,11.93
2019-05-19T01:02:19.745Z,11.96
2019-05-19T01:04:50.368Z,11.94
2019-05-19T01:07:20.985Z,12.00
2019-05-19T01:09:51.977Z,12.00
2019-05-19T01:12:22.246Z,11.99
2019-05-19T01:14:52.433Z,11.93
2019-05-19T01:17:24.008Z,11.91
2019-05-19T01:19:56.401Z,11.91
2019-05-19T01:22:26.913Z,11.93
2019-05-19T01:24:57.116Z,11.95
2019-05-19T01:27:27.384Z,11.94
2019-05-19T01:29:57.815Z,11.92
2019-05-19T01:32:28.218Z,11.94
2019-05-19T01:34:58.705Z,11.87
2019-05-19T01:37:29.086Z,11.88
2019-05-19T01:39:59.298Z,11.86
2019-05-19T01:42:29.687Z,11.85
2019-05-19T01:44:59.818Z,11.85
2019-05-19T01:47:30.002Z,11.83
2019-05-19T01:50:16.835Z,11.67
2019-05-19T01:52:32.197Z,11.67
2019-05-19T01:55:02.431Z,11.68
2019-05-19T01:57:32.931Z,11.71
2019-05-19T02:00:03.582Z,11.73
2019-05-19T02:02:35.143Z,11.76
2019-05-19T02:05:05.596Z,11.75
2019-05-19T02:07:36.109Z,11.74
2019-05-19T02:10:06.731Z,11.78
2019-05-19T02:12:36.995Z,11.78
2019-05-19T02:15:07.329Z,11.75
2019-05-19T02:17:37.653Z,11.70
2019-05-19T02:20:08.293Z,11.67
2019-05-19T02:22:38.640Z,11.67
2019-05-19T02:25:09.142Z,11.68
2019-05-19T02:27:41.780Z,11.68
2019-05-19T02:30:12.258Z,11.70
2019-05-19T02:32:42.495Z,11.63
2019-05-19T02:35:12.637Z,11.58
2019-05-19T02:37:42.900Z,11.58
2019-05-19T02:40:13.035Z,11.55
2019-05-19T02:42:44.012Z,11.53
2019-05-19T02:45:15.921Z,11.48
2019-05-19T02:47:46.471Z,11.40
2019-05-19T02:50:16.639Z,11.39
2019-05-19T02:52:48.183Z,11.36
2019-05-19T02:55:19.632Z,11.36
2019-05-19T02:57:51.311Z,11.38
2019-05-19T03:00:30.904Z,11.40
2019-05-19T03:03:01.098Z,11.41
2019-05-19T03:05:31.341Z,11.41
2019-05-19T03:08:04.465Z,11.38
2019-05-19T03:10:34.928Z,11.38
2019-05-19T03:13:05.153Z,11.39
2019-05-19T03:15:35.273Z,11.31
2019-05-19T03:18:05.501Z,11.38
2019-05-19T03:20:35.631Z,11.34
2019-05-19T03:23:07.085Z,11.36
2019-05-19T03:25:39.078Z,11.38
2019-05-19T03:28:09.399Z,11.39
2019-05-19T03:31:04.475Z,11.38
2019-05-19T03:33:36.485Z,11.31
2019-05-19T03:36:07.098Z,11.33
2019-05-19T03:38:37.454Z,11.37
2019-05-19T03:41:07.760Z,11.37
2019-05-19T03:43:38.229Z,11.40
2019-05-19T03:46:08.776Z,11.43
2019-05-19T03:48:39.233Z,11.41
2019-05-19T03:51:27.324Z,11.32
2019-05-19T03:53:41.228Z,11.29
2019-05-19T03:56:13.373Z,11.28
2019-05-19T03:58:45.079Z,11.32
2019-05-19T04:01:15.450Z,11.41
2019-05-19T04:03:48.175Z,11.47
2019-05-19T04:06:18.371Z,11.53
2019-05-19T04:08:48.568Z,11.56
2019-05-19T04:11:18.788Z,11.46
2019-05-19T04:13:49.050Z,11.48
2019-05-19T04:16:23.706Z,11.55
2019-05-19T04:18:53.915Z,11.62
2019-05-19T04:21:24.124Z,11.67
2019-05-19T04:23:54.499Z,11.72
2019-05-19T04:26:24.634Z,11.79
2019-05-19T04:28:54.739Z,11.88
2019-05-19T04:31:26.227Z,11.97
2019-05-19T04:33:56.509Z,12.10
2019-05-19T04:36:26.742Z,12.20
2019-05-19T04:38:57.213Z,12.31
2019-05-19T04:41:29.080Z,12.48
2019-05-19T04:43:59.241Z,12.60
2019-05-19T04:46:29.522Z,12.78
2019-05-19T04:49:00.014Z,12.94
2019-05-19T04:51:30.376Z,13.12
2019-05-19T04:54:00.663Z,13.26
2019-05-19T04:56:32.764Z,13.41
2019-05-19T04:59:03.079Z,13.52
2019-05-19T05:01:33.249Z,13.68
2019-05-19T05:04:03.670Z,13.79
2019-05-19T05:06:34.027Z,13.80
2019-05-19T05:09:04.936Z,13.87
2019-05-19T05:11:35.363Z,14.00
2019-05-19T05:14:07.350Z,14.17
2019-05-19T05:16:37.544Z,14.28
2019-05-19T05:19:07.762Z,14.37
2019-05-19T05:21:38.071Z,14.40
2019-05-19T05:24:08.233Z,14.53
2019-05-19T05:26:38.425Z,14.58
2019-05-19T05:29:08.691Z,14.53
2019-05-19T05:31:39.469Z,14.52
2019-05-19T05:34:09.691Z,14.57
2019-05-19T05:36:39.892Z,14.68
2019-05-19T05:39:10.077Z,14.52
2019-05-19T05:41:40.298Z,14.35
2019-05-19T05:44:10.762Z,14.26
2019-05-19T05:46:41.057Z,14.10
2019-05-19T05:49:11.327Z,14.11
2019-05-19T05:51:41.475Z,14.13
2019-05-19T05:54:11.736Z,14.12
2019-05-19T05:56:43.865Z,14.12
2019-05-19T05:59:14.308Z,14.13
2019-05-19T06:01:44.654Z,14.11
2019-05-19T06:04:15.317Z,14.15
2019-05-19T06:06:45.954Z,14.13
2019-05-19T06:09:16.328Z,14.08
2019-05-19T06:11:46.613Z,14.25
2019-05-19T06:14:17.074Z,14.41
2019-05-19T06:16:49.004Z,14.55
2019-05-19T06:19:19.265Z,14.62
2019-05-19T06:21:49.693Z,14.64
2019-05-19T06:24:21.356Z,14.67
2019-05-19T06:26:51.736Z,14.86
2019-05-19T06:29:22.008Z,15.00
2019-05-19T06:31:53.680Z,14.95
2019-05-19T06:34:24.062Z,14.88
2019-05-19T06:36:55.147Z,14.99
2019-05-19T06:39:25.728Z,15.06
2019-05-19T06:41:56.063Z,15.25
2019-05-19T06:44:26.307Z,15.39
2019-05-19T06:46:56.628Z,15.51
2019-05-19T06:49:27.164Z,15.54
2019-05-19T06:51:57.562Z,15.53
2019-05-19T06:54:28.012Z,15.74
2019-05-19T06:56:58.360Z,15.82
2019-05-19T06:59:28.972Z,15.79
2019-05-19T07:01:59.160Z,15.86
2019-05-19T07:04:29.374Z,15.98
2019-05-19T07:06:59.684Z,16.14
2019-05-19T07:09:30.093Z,16.09
2019-05-19T07:12:01.871Z,16.19
2019-05-19T07:14:32.190Z,16.40
2019-05-19T07:17:02.592Z,16.63
2019-05-19T07:19:32.877Z,16.82
2019-05-19T07:22:03.168Z,17.05
2019-05-19T07:24:33.921Z,17.11
2019-05-19T07:27:04.320Z,17.13
2019-05-19T07:29:34.624Z,17.37
2019-05-19T07:32:05.439Z,17.32
2019-05-19T07:34:35.702Z,17.03
2019-05-19T07:37:06.907Z,17.06
2019-05-19T07:39:37.555Z,17.23
2019-05-19T07:42:08.183Z,17.26
2019-05-19T07:44:38.690Z,17.01
2019-05-19T07:47:09.395Z,16.76
2019-05-19T07:49:39.800Z,16.47
2019-05-19T07:52:10.065Z,16.36
2019-05-19T07:54:42.190Z,16.39
2019-05-19T07:57:12.471Z,16.42
2019-05-19T07:59:42.955Z,16.59
2019-05-19T08:02:13.866Z,16.69
2019-05-19T08:04:44.571Z,16.51
2019-05-19T08:07:15.434Z,16.40
2019-05-19T08:09:46.168Z,16.49
2019-05-19T08:12:16.881Z,16.62
2019-05-19T08:14:48.913Z,16.71
2019-05-19T08:17:19.625Z,16.63
2019-05-19T08:19:50.350Z,16.46
2019-05-19T08:22:21.003Z,16.54
2019-05-19T08:24:51.553Z,16.67
2019-05-19T08:27:22.551Z,16.86
2019-05-19T08:29:53.001Z,17.11
2019-05-19T08:32:23.892Z,17.36
2019-05-19T08:34:54.310Z,17.50
2019-05-19T08:37:25.748Z,17.66
2019-05-19T08:39:55.887Z,18.18
2019-05-19T08:42:26.204Z,19.53
2019-05-19T08:44:56.556Z,20.08
2019-05-19T08:47:27.037Z,20.40
2019-05-19T08:49:57.645Z,20.33
2019-05-19T08:52:29.864Z,20.13
2019-05-19T08:55:00.507Z,19.70
2019-05-19T08:57:30.974Z,20.34
2019-05-19T09:00:01.784Z,21.76
2019-05-19T09:02:34.468Z,22.44
2019-05-19T09:05:06.343Z,23.15
2019-05-19T09:07:37.009Z,23.95
2019-05-19T09:10:08.622Z,24.34
2019-05-19T09:12:39.357Z,24.41
2019-05-19T09:15:10.033Z,23.14
2019-05-19T09:17:41.921Z,22.06
2019-05-19T09:20:13.405Z,22.22
2019-05-19T09:22:44.723Z,23.39
2019-05-19T09:25:15.562Z,25.30
2019-05-19T09:27:46.064Z,27.15
2019-05-19T09:30:17.961Z,28.09
2019-05-19T09:32:48.712Z,28.84
2019-05-19T09:35:19.760Z,28.41
2019-05-19T09:37:51.406Z,27.24
2019-05-19T09:40:22.102Z,24.88
2019-05-19T09:42:52.474Z,23.58
2019-05-19T09:45:23.162Z,22.79
2019-05-19T09:47:54.094Z,22.51
2019-05-19T09:50:24.603Z,22.89
2019-05-19T09:52:55.140Z,23.30
2019-05-19T09:55:26.006Z,23.69
2019-05-19T09:57:56.534Z,24.19
2019-05-19T10:00:27.217Z,24.00
2019-05-19T10:02:57.723Z,23.43
2019-05-19T10:05:28.334Z,23.18
2019-05-19T10:07:58.932Z,23.37
2019-05-19T10:10:42.676Z,23.22
2019-05-19T10:13:13.884Z,23.80
2019-05-19T10:15:45.197Z,24.66
2019-05-19T10:18:16.117Z,26.07
2019-05-19T10:20:50.201Z,26.06
2019-05-19T10:23:20.159Z,26.61
2019-05-19T10:25:52.639Z,26.73
2019-05-19T10:28:23.700Z,28.37
2019-05-19T10:30:55.337Z,29.16
2019-05-19T10:33:25.800Z,28.38
2019-05-19T10:35:56.333Z,29.10
2019-05-19T10:38:26.772Z,29.55
2019-05-19T10:40:57.158Z,30.40
2019-05-19T10:43:27.546Z,30.71
2019-05-19T10:46:01.255Z,30.89
2019-05-19T10:48:31.456Z,32.11
2019-05-19T10:51:04.735Z,32.18
2019-05-19T10:53:34.976Z,32.58
2019-05-19T10:56:05.470Z,32.54
2019-05-19T10:58:35.825Z,31.95
2019-05-19T11:01:09.114Z,32.55
2019-05-19T11:03:40.138Z,33.39
2019-05-19T11:06:10.485Z,32.07
2019-05-19T11:08:40.896Z,30.93
2019-05-19T11:11:13.137Z,31.52
2019-05-19T11:13:44.099Z,32.40
2019-05-19T11:16:14.261Z,32.35
2019-05-19T11:18:44.669Z,31.26
2019-05-19T11:21:15.213Z,29.74
2019-05-19T11:23:47.947Z,29.29
2019-05-19T11:26:18.152Z,28.16
2019-05-19T11:28:48.409Z,28.16
2019-05-19T11:31:21.427Z,29.56
2019-05-19T11:33:52.149Z,31.61
2019-05-19T11:36:22.804Z,31.91
2019-05-19T11:38:53.160Z,30.97
2019-05-19T11:41:23.347Z,30.75
2019-05-19T11:43:54.832Z,29.74
2019-05-19T11:46:25.223Z,29.18
2019-05-19T11:48:55.868Z,30.58
2019-05-19T11:51:26.714Z,31.89
2019-05-19T11:53:57.145Z,31.89
2019-05-19T11:56:27.770Z,31.30
2019-05-19T11:58:59.136Z,30.60
2019-05-19T12:01:29.573Z,30.49
2019-05-19T12:03:59.894Z,30.49
2019-05-19T12:06:39.207Z,31.10
2019-05-19T12:09:02.239Z,30.18
2019-05-19T12:11:33.167Z,29.98
2019-05-19T12:14:03.541Z,28.52
2019-05-19T12:16:33.845Z,27.01
2019-05-19T12:19:04.060Z,26.49
2019-05-19T12:21:34.386Z,27.26
2019-05-19T12:24:05.761Z,28.25
2019-05-19T12:26:36.280Z,29.10
2019-05-19T12:29:06.547Z,28.90
2019-05-19T12:31:36.811Z,28.58
2019-05-19T12:34:07.129Z,28.45
2019-05-19T12:36:38.066Z,28.36
2019-05-19T12:39:08.451Z,28.69
2019-05-19T12:41:38.810Z,29.82
2019-05-19T12:44:10.955Z,30.78
2019-05-19T12:46:41.413Z,31.82
2019-05-19T12:49:12.056Z,31.89
2019-05-19T12:51:42.470Z,31.58
2019-05-19T12:54:12.720Z,32.08
2019-05-19T12:56:43.182Z,32.23
2019-05-19T12:59:13.773Z,32.33
2019-05-19T13:01:44.079Z,32.00
2019-05-19T13:04:14.343Z,31.34
2019-05-19T13:06:44.977Z,30.22
2019-05-19T13:09:15.525Z,29.83
2019-05-19T13:11:46.684Z,29.34
2019-05-19T13:14:16.909Z,28.28
2019-05-19T13:16:47.215Z,28.65
2019-05-19T13:19:17.965Z,28.50
2019-05-19T13:21:48.430Z,28.31
2019-05-19T13:24:18.792Z,27.19
2019-05-19T13:26:56.562Z,27.11
2019-05-19T13:29:21.727Z,27.11
2019-05-19T13:31:52.184Z,26.84
2019-05-19T13:34:22.498Z,26.88
2019-05-19T13:36:54.351Z,26.96
2019-05-19T13:39:24.832Z,26.95
2019-05-19T13:41:55.612Z,26.69
2019-05-19T13:44:26.076Z,26.15
2019-05-19T13:46:56.424Z,25.62
2019-05-19T13:49:29.406Z,25.89
2019-05-19T13:51:59.803Z,25.71
2019-05-19T13:54:29.988Z,25.45
2019-05-19T13:57:11.960Z,25.67
2019-05-19T13:59:33.222Z,25.90
2019-05-19T14:02:04.170Z,25.83
2019-05-19T14:04:35.535Z,25.77
2019-05-19T14:07:06.373Z,25.82
2019-05-19T14:09:36.859Z,25.88
2019-05-19T14:12:07.197Z,25.78
2019-05-19T14:14:39.797Z,25.77
2019-05-19T14:17:10.456Z,25.62
2019-05-19T14:19:43.553Z,25.46
2019-05-19T14:22:13.788Z,25.72
2019-05-19T14:24:44.058Z,25.80
2019-05-19T14:27:28.879Z,25.75
2019-05-19T14:29:47.173Z,25.81
2019-05-19T14:32:17.542Z,25.83
2019-05-19T14:34:47.813Z,25.74
2019-05-19T14:37:19.592Z,25.41
2019-05-19T14:39:50.301Z,25.21
2019-05-19T14:42:39.883Z,25.03
2019-05-19T14:45:12.624Z,24.85
2019-05-19T14:47:44.134Z,24.90
2019-05-19T14:50:15.267Z,25.13
2019-05-19T14:52:46.585Z,25.04
2019-05-19T14:55:17.258Z,24.94
2019-05-19T14:57:48.829Z,24.90
2019-05-19T15:00:20.686Z,24.91
2019-05-19T15:02:51.355Z,24.83
2019-05-19T15:05:22.385Z,24.71
2019-05-19T15:07:52.945Z,24.68
2019-05-19T15:10:24.491Z,24.60
2019-05-19T15:12:56.679Z,24.58
2019-05-19T15:15:27.966Z,24.68
2019-05-19T15:17:58.614Z,24.64
2019-05-19T15:20:29.179Z,24.67
2019-05-19T15:23:02.316Z,24.49
2019-05-19T15:25:32.674Z,24.37
2019-05-19T15:28:05.358Z,24.25
2019-05-19T15:30:36.245Z,24.03
2019-05-19T15:33:07.089Z,24.10
2019-05-19T15:35:37.363Z,24.13
2019-05-19T15:38:07.841Z,24.39
2019-05-19T15:40:38.633Z,24.77
2019-05-19T15:43:09.041Z,24.90
2019-05-19T15:45:39.710Z,25.23
2019-05-19T15:48:10.086Z,24.89
2019-05-19T15:50:40.609Z,25.22
2019-05-19T15:53:10.923Z,25.03
2019-05-19T15:55:41.567Z,24.78
2019-05-19T15:58:16.420Z,24.83
2019-05-19T16:00:44.066Z,24.89
2019-05-19T16:03:14.561Z,24.48
2019-05-19T16:05:44.798Z,23.29
2019-05-19T16:08:15.304Z,21.91
2019-05-19T16:10:45.949Z,21.42
2019-05-19T16:13:16.324Z,20.98
2019-05-19T16:15:49.014Z,19.91
2019-05-19T16:18:19.383Z,19.43
2019-05-19T16:20:49.690Z,18.71
2019-05-19T16:23:19.982Z,18.17
2019-05-19T16:25:50.369Z,18.24
2019-05-19T16:28:30.226Z,17.95
2019-05-19T16:30:53.564Z,17.29
2019-05-19T16:33:24.103Z,17.61
2019-05-19T16:35:54.597Z,17.62
2019-05-19T16:38:25.219Z,17.59
2019-05-19T16:40:55.975Z,17.52
2019-05-19T16:43:26.839Z,17.24
2019-05-19T16:45:57.237Z,17.13
2019-05-19T16:48:27.690Z,17.29
2019-05-19T16:50:58.174Z,17.04
2019-05-19T16:53:29.100Z,16.92
2019-05-19T16:55:59.310Z,16.75
2019-05-19T16:58:29.551Z,16.94
2019-05-19T17:00:59.763Z,16.76
2019-05-19T17:03:30.123Z,16.67
2019-05-19T17:06:00.390Z,16.71
2019-05-19T17:08:30.780Z,16.72
2019-05-19T17:11:01.284Z,16.39
2019-05-19T17:13:31.820Z,16.08
2019-05-19T17:16:02.675Z,15.54
2019-05-19T17:18:33.124Z,15.91
2019-05-19T17:21:03.372Z,15.72
2019-05-19T17:23:33.619Z,15.60
2019-05-19T17:26:04.467Z,15.75
2019-05-19T17:28:34.823Z,15.90
2019-05-19T17:31:07.600Z,16.01
2019-05-19T17:33:37.344Z,16.01
2019-05-19T17:36:09.399Z,15.65
2019-05-19T17:38:40.678Z,15.71
2019-05-19T17:41:11.224Z,15.43
2019-05-19T17:43:44.533Z,15.53
2019-05-19T17:46:15.359Z,15.43
2019-05-19T17:48:46.026Z,15.46
2019-05-19T17:51:16.863Z,15.33
2019-05-19T17:53:47.506Z,15.32
2019-05-19T17:56:18.245Z,15.40
2019-05-19T17:58:50.110Z,15.42
2019-05-19T18:01:20.920Z,15.47
2019-05-19T18:03:52.114Z,15.29
2019-05-19T18:06:22.741Z,15.31
2019-05-19T18:08:53.448Z,15.34
2019-05-19T18:11:24.831Z,15.23
2019-05-19T18:13:58.793Z,15.24
2019-05-19T18:16:31.488Z,15.18
2019-05-19T18:19:03.796Z,15.20
2019-05-19T18:21:34.485Z,14.91
2019-05-19T18:24:06.701Z,15.00
2019-05-19T18:26:37.475Z,14.91
2019-05-19T18:29:08.049Z,14.86
2019-05-19T18:31:38.646Z,14.83
2019-05-19T18:34:09.127Z,14.82
2019-05-19T18:36:40.203Z,14.82
2019-05-19T18:39:11.231Z,14.79
2019-05-19T18:41:41.749Z,14.65
2019-05-19T18:44:13.581Z,14.58
2019-05-19T18:46:44.100Z,14.59
2019-05-19T18:49:14.586Z,14.56
2019-05-19T18:51:45.505Z,14.52
2019-05-19T18:54:16.190Z,14.34
2019-05-19T18:56:51.191Z,14.30
2019-05-19T18:59:22.800Z,14.30
2019-05-19T19:01:54.871Z,14.30
2019-05-19T19:04:25.818Z,14.31
2019-05-19T19:06:56.267Z,14.34
2019-05-19T19:09:26.736Z,14.32
2019-05-19T19:12:01.006Z,14.30
2019-05-19T19:14:38.390Z,14.26
2019-05-19T19:17:12.011Z,14.19
2019-05-19T19:19:42.789Z,14.21
2019-05-19T19:22:14.903Z,14.08
2019-05-19T19:24:46.604Z,14.17
2019-05-19T19:27:18.181Z,14.22
2019-05-19T19:30:02.544Z,14.20
2019-05-19T19:32:24.690Z,14.10
2019-05-19T19:34:56.749Z,14.17
2019-05-19T19:37:27.360Z,14.12
2019-05-19T19:39:58.138Z,14.13
2019-05-19T19:42:28.630Z,14.10
2019-05-19T19:45:00.353Z,14.11
2019-05-19T19:47:31.037Z,14.09
2019-05-19T19:50:01.897Z,14.08
2019-05-19T19:52:32.726Z,14.09
2019-05-19T19:55:03.346Z,14.02
2019-05-19T19:57:33.943Z,13.96
2019-05-19T20:00:17.334Z,13.92
2019-05-19T20:02:37.876Z,13.74
2019-05-19T20:05:10.729Z,13.54
2019-05-19T20:07:42.284Z,13.55
2019-05-19T20:10:13.396Z,13.53
2019-05-19T20:12:44.291Z,13.62
2019-05-19T20:15:16.629Z,13.67
2019-05-19T20:17:50.355Z,13.75
2019-05-19T20:20:24.241Z,13.82
2019-05-19T20:22:54.802Z,13.63
2019-05-19T20:25:25.200Z,13.63
2019-05-19T20:27:55.483Z,13.53
2019-05-19T20:30:35.109Z,13.60
2019-05-19T20:32:57.793Z,13.53
2019-05-19T20:35:28.041Z,13.65
2019-05-19T20:37:58.292Z,13.74
2019-05-19T20:40:28.457Z,13.82
2019-05-19T20:42:58.646Z,13.78
2019-05-19T20:45:28.846Z,13.78
2019-05-19T20:47:59.137Z,13.78
2019-05-19T20:50:29.289Z,13.75
2019-05-19T20:52:59.521Z,13.75
2019-05-19T20:55:30.095Z,13.72
2019-05-19T20:58:00.575Z,13.73
2019-05-19T21:00:32.655Z,13.73
2019-05-19T21:03:02.929Z,13.66
2019-05-19T21:05:33.309Z,13.52
2019-05-19T21:08:03.914Z,13.59
2019-05-19T21:10:34.599Z,13.66
2019-05-19T21:13:04.930Z,13.72
2019-05-19T21:15:35.216Z,13.55
2019-05-19T21:18:06.166Z,13.52
2019-05-19T21:20:36.372Z,13.57
2019-05-19T21:23:07.059Z,13.56
2019-05-19T21:25:37.513Z,13.45
2019-05-19T21:28:08.253Z,13.32
2019-05-19T21:30:38.797Z,13.19
2019-05-19T21:33:09.040Z,13.11
2019-05-19T21:35:39.299Z,13.12
2019-05-19T21:38:09.821Z,12.94
2019-05-19T21:40:40.124Z,12.84
2019-05-19T21:43:10.595Z,12.86
2019-05-19T21:45:43.896Z,12.90
2019-05-19T21:48:14.341Z,12.98
2019-05-19T21:50:44.794Z,13.00
2019-05-19T21:53:14.971Z,12.96
2019-05-19T21:55:45.572Z,12.98
2019-05-19T21:58:16.006Z,13.01
2019-05-19T22:00:46.355Z,13.05
2019-05-19T22:03:16.719Z,13.07
2019-05-19T22:05:53.426Z,13.05
2019-05-19T22:08:18.960Z,13.02
2019-05-19T22:10:49.226Z,12.99
2019-05-19T22:13:19.469Z,12.98
2019-05-19T22:15:50.161Z,12.99
2019-05-19T22:18:20.386Z,13.02
2019-05-19T22:20:52.590Z,13.08
2019-05-19T22:23:22.865Z,13.09
2019-05-19T22:25:53.151Z,13.08
2019-05-19T22:28:23.408Z,12.91
2019-05-19T22:30:53.732Z,12.86
2019-05-19T22:33:23.957Z,12.92
2019-05-19T22:35:54.206Z,12.97
2019-05-19T22:38:24.381Z,12.95
2019-05-19T22:40:55.326Z,12.92
2019-05-19T22:43:25.526Z,12.87
2019-05-19T22:45:55.836Z,12.89
2019-05-19T22:48:29.436Z,12.90
2019-05-19T22:51:00.057Z,12.89
2019-05-19T22:53:32.607Z,12.78
2019-05-19T22:56:02.295Z,12.72
2019-05-19T22:58:32.501Z,12.77
2019-05-19T23:01:05.580Z,12.76
2019-05-19T23:03:35.793Z,12.82
2019-05-19T23:06:06.047Z,12.80
2019-05-19T23:08:36.481Z,12.79
2019-05-19T23:11:07.054Z,12.72
2019-05-19T23:13:37.880Z,12.71
2019-05-19T23:16:08.022Z,12.72
2019-05-19T23:18:38.163Z,12.70
2019-05-19T23:21:08.410Z,12.75
2019-05-19T23:23:38.645Z,12.79
2019-05-19T23:26:11.180Z,12.79
2019-05-19T23:28:41.712Z,12.73
2019-05-19T23:31:13.922Z,12.73
2019-05-19T23:33:44.234Z,12.76
2019-05-19T23:36:14.466Z,12.79
2019-05-19T23:38:44.803Z,12.79
2019-05-19T23:41:15.019Z,12.77
2019-05-19T23:43:45.233Z,12.78
2019-05-19T23:46:15.963Z,12.80
2019-05-19T23:48:46.210Z,12.80
2019-05-19T23:51:16.345Z,12.83
2019-05-19T23:53:46.474Z,12.78
2019-05-19T23:56:17.480Z,12.69
2019-05-19T23:58:47.934Z,12.65
